Time;durP1;ratioP1;P1;durP2;ratioP2;P2;SDS_P1;SDS_P2;PMS_P1;PMS_P2;Temp;Humidity;BMP_temperature;BMP_pressure;BME280_temperature;BME280_humidity;BME280_pressure;Samples;Min_cycle;Max_cycle;Signal;HPM_P1;HPM_P2
2023/07/13 00:01:49;;;;;;;5.75;2.38;;;15.90;99.90;;;;;;5072252;28;20082;-80
2023/07/13 00:04:17;;;;;;;9.68;4.68;;;15.50;99.90;;;;;;5071966;28;20054;-80
2023/07/13 00:06:44;;;;;;;6.05;2.17;;;15.50;99.90;;;;;;5077240;28;20382;-80
2023/07/13 00:09:14;;;;;;;6.00;2.40;;;15.40;99.90;;;;;;5091419;28;20549;-80
2023/07/13 00:11:40;;;;;;;8.10;2.33;;;15.40;99.90;;;;;;5108843;28;20088;-80
2023/07/13 00:14:06;;;;;;;7.50;2.80;;;15.40;99.90;;;;;;5108474;28;20083;-80
2023/07/13 00:16:34;;;;;;;7.97;2.90;;;15.40;99.90;;;;;;5091040;28;20044;-80
2023/07/13 00:19:00;;;;;;;8.13;2.83;;;15.40;99.90;;;;;;5108505;28;20074;-80
2023/07/13 00:21:29;;;;;;;7.65;2.80;;;15.40;99.90;;;;;;5108668;28;20043;-80
2023/07/13 00:23:55;;;;;;;5.03;2.47;;;15.40;99.90;;;;;;5110097;28;20035;-80
2023/07/13 00:26:21;;;;;;;7.03;2.55;;;15.60;99.90;;;;;;5107390;28;20047;-79
2023/07/13 00:28:47;;;;;;;4.97;2.05;;;15.50;99.90;;;;;;5108992;28;20424;-80
2023/07/13 00:31:16;;;;;;;8.18;2.35;;;15.50;99.90;;;;;;5091258;28;20127;-80
2023/07/13 00:33:42;;;;;;;6.65;2.63;;;15.60;99.90;;;;;;5105065;28;20047;-80
2023/07/13 00:36:09;;;;;;;5.50;2.13;;;15.60;99.90;;;;;;5108499;28;20126;-80
2023/07/13 00:38:35;;;;;;;7.88;2.30;;;16.10;99.90;;;;;;5097164;28;20471;-80
2023/07/13 00:41:03;;;;;;;7.43;2.55;;;15.50;99.90;;;;;;5101184;28;20093;-80
2023/07/13 00:43:38;;;;;;;6.63;2.80;;;16.00;99.90;;;;;;5103957;28;20075;-80
2023/07/13 00:46:17;;;;;;;5.93;2.42;;;15.30;99.90;;;;;;5089651;28;20056;-80
2023/07/13 00:48:45;;;;;;;8.15;2.55;;;15.50;99.90;;;;;;5071711;28;20059;-80
2023/07/13 00:51:11;;;;;;;9.95;4.00;;;15.60;99.90;;;;;;5087476;28;20052;-80
2023/07/13 00:53:36;;;;;;;8.88;2.50;;;15.50;99.90;;;;;;5101420;28;20052;-80
2023/07/13 00:56:03;;;;;;;8.52;2.75;;;15.50;99.90;;;;;;5095000;28;20044;-79
2023/07/13 00:58:29;;;;;;;5.95;2.80;;;15.50;99.90;;;;;;5089912;28;20044;-80
2023/07/13 01:00:55;;;;;;;6.55;2.38;;;15.60;99.90;;;;;;5090451;28;20446;-80
2023/07/13 01:03:21;;;;;;;5.88;2.30;;;15.60;99.90;;;;;;5108324;28;20143;-79
2023/07/13 01:05:49;;;;;;;7.80;2.20;;;15.50;99.90;;;;;;5106328;28;20093;-80
2023/07/13 01:08:15;;;;;;;6.45;2.40;;;15.60;99.90;;;;;;5072315;28;20048;-80
2023/07/13 01:10:41;;;;;;;6.53;2.42;;;15.60;99.90;;;;;;5098269;28;20035;-80
2023/07/13 01:13:09;;;;;;;10.43;2.45;;;15.50;99.90;;;;;;5108247;28;20118;-80
2023/07/13 01:15:47;;;;;;;7.80;2.78;;;15.50;99.90;;;;;;5104002;28;20095;-80
2023/07/13 01:18:24;;;;;;;9.25;2.50;;;15.50;99.90;;;;;;5109926;28;20492;-79
2023/07/13 01:20:57;;;;;;;6.10;2.60;;;15.50;99.90;;;;;;5091510;28;20106;-80
2023/07/13 01:23:24;;;;;;;7.95;2.72;;;15.50;99.90;;;;;;5108491;28;20047;-80
2023/07/13 01:25:51;;;;;;;9.68;2.60;;;15.80;99.90;;;;;;5104653;28;20497;-80
2023/07/13 01:28:17;;;;;;;7.20;2.83;;;15.50;99.90;;;;;;5090626;28;20436;-80
2023/07/13 01:30:45;;;;;;;6.35;2.95;;;15.50;99.90;;;;;;5088252;28;20509;-80
2023/07/13 01:33:16;;;;;;;7.55;2.83;;;15.50;99.90;;;;;;5070925;28;20048;-81
2023/07/13 01:35:42;;;;;;;7.80;2.47;;;16.00;99.90;;;;;;5090503;28;20040;-80
2023/07/13 01:38:09;;;;;;;6.78;2.58;;;15.50;99.90;;;;;;5106993;28;20042;-80
2023/07/13 01:40:36;;;;;;;5.00;2.80;;;15.60;99.90;;;;;;5091628;28;20065;-81
2023/07/13 01:43:03;;;;;;;5.10;2.00;;;15.60;99.90;;;;;;5079254;28;20513;-80
2023/07/13 01:45:28;;;;;;;7.25;2.65;;;15.90;99.90;;;;;;5098289;28;20490;-80
2023/07/13 01:47:54;;;;;;;10.52;2.88;;;15.60;99.90;;;;;;5095159;28;20044;-80
2023/07/13 01:50:20;;;;;;;6.25;2.33;;;15.60;99.90;;;;;;5106926;28;20469;-80
2023/07/13 01:52:45;;;;;;;8.95;2.92;;;15.60;99.90;;;;;;5089941;28;20120;-80
2023/07/13 01:55:11;;;;;;;6.95;2.53;;;15.90;99.90;;;;;;5072098;28;20050;-80
2023/07/13 01:57:37;;;;;;;9.15;2.78;;;15.60;99.90;;;;;;5103112;28;20147;-79
2023/07/13 02:00:08;;;;;;;7.60;2.83;;;15.60;99.90;;;;;;5090371;28;20044;-80
2023/07/13 02:02:34;;;;;;;7.95;2.20;;;15.60;99.90;;;;;;5087475;28;20410;-80
2023/07/13 02:04:59;;;;;;;12.15;2.40;;;15.90;99.90;;;;;;5094353;28;20043;-80
2023/07/13 02:07:25;;;;;;;6.85;2.75;;;15.60;99.90;;;;;;5088491;28;20749;-80
2023/07/13 02:09:51;;;;;;;7.75;2.47;;;15.50;99.90;;;;;;5091097;28;20032;-80
2023/07/13 02:12:16;;;;;;;7.97;2.92;;;15.50;99.90;;;;;;5089725;28;20342;-80
2023/07/13 02:14:42;;;;;;;8.07;2.75;;;15.50;99.90;;;;;;5101433;28;20575;-80
2023/07/13 02:17:10;;;;;;;8.40;2.55;;;15.60;99.90;;;;;;5087544;28;20044;-80
2023/07/13 02:19:36;;;;;;;9.57;2.83;;;15.40;99.90;;;;;;5087711;28;20062;-80
2023/07/13 02:22:01;;;;;;;6.15;2.58;;;15.40;99.90;;;;;;5099366;28;20326;-81
2023/07/13 02:24:27;;;;;;;9.68;2.95;;;15.40;99.90;;;;;;5106361;28;20558;-80
2023/07/13 02:26:53;;;;;;;8.85;2.88;;;15.30;99.90;;;;;;5090797;28;20491;-80
2023/07/13 02:29:18;;;;;;;7.30;2.60;;;15.30;99.90;;;;;;5085845;28;20035;-80
2023/07/13 02:31:44;;;;;;;9.90;3.00;;;15.30;99.90;;;;;;5106347;28;20096;-80
2023/07/13 02:34:10;;;;;;;8.73;2.67;;;15.20;99.90;;;;;;5105125;28;20048;-80
2023/07/13 02:36:35;;;;;;;5.88;2.45;;;15.20;99.90;;;;;;5090073;28;20142;-80
2023/07/13 02:39:04;;;;;;;7.20;2.28;;;15.20;99.90;;;;;;5103732;28;20051;-80
2023/07/13 02:41:29;;;;;;;7.75;2.55;;;15.10;99.90;;;;;;5089051;28;20044;-80
2023/07/13 02:44:03;;;;;;;8.30;3.83;;;15.10;99.90;;;;;;5086408;28;20134;-80
2023/07/13 02:46:34;;;;;;;12.25;3.47;;;15.20;99.90;;;;;;5085644;28;20044;-80
2023/07/13 02:49:00;;;;;;;8.65;2.72;;;15.00;99.90;;;;;;5085746;28;21960;-80
2023/07/13 02:51:26;;;;;;;8.60;3.38;;;15.00;99.90;;;;;;5088729;28;20055;-80
2023/07/13 02:53:52;;;;;;;6.88;2.78;;;15.00;99.90;;;;;;5089878;28;20105;-80
2023/07/13 02:56:21;;;;;;;7.18;2.50;;;15.00;99.90;;;;;;5073024;28;20040;-80
2023/07/13 02:58:47;;;;;;;8.48;2.90;;;15.10;99.90;;;;;;5074211;28;20044;-80
2023/07/13 03:01:13;;;;;;;7.93;2.80;;;14.90;99.90;;;;;;5106591;28;20044;-80
2023/07/13 03:03:39;;;;;;;7.95;2.63;;;14.90;99.90;;;;;;5100589;28;20048;-80
2023/07/13 03:06:07;;;;;;;7.13;2.67;;;14.90;99.90;;;;;;5072238;28;20462;-80
2023/07/13 03:08:33;;;;;;;5.93;2.83;;;14.90;99.90;;;;;;5089347;28;20097;-81
2023/07/13 03:11:15;;;;;;;8.63;3.03;;;14.90;99.90;;;;;;5103470;28;20564;-80
2023/07/13 03:13:42;;;;;;;7.23;2.60;;;14.90;99.90;;;;;;5095954;28;20497;-80
2023/07/13 03:16:10;;;;;;;11.75;3.55;;;15.00;99.90;;;;;;5088893;28;20047;-80
2023/07/13 03:18:36;;;;;;;5.15;2.85;;;14.90;99.90;;;;;;5089329;28;20051;-80
2023/07/13 03:21:02;;;;;;;8.43;2.72;;;14.90;99.90;;;;;;5071394;28;20078;-80
2023/07/13 03:23:28;;;;;;;9.40;3.10;;;14.90;99.90;;;;;;5090712;28;20083;-80
2023/07/13 03:26:08;;;;;;;7.22;2.45;;;14.90;99.90;;;;;;5108523;28;20044;-80
2023/07/13 03:28:34;;;;;;;9.95;3.45;;;14.90;99.90;;;;;;5086999;28;20043;-80
2023/07/13 03:31:18;;;;;;;7.57;3.08;;;14.90;99.90;;;;;;5089133;28;20040;-80
2023/07/13 03:33:44;;;;;;;7.53;2.63;;;14.90;99.90;;;;;;5073322;28;20127;-81
2023/07/13 03:36:14;;;;;;;7.20;2.30;;;14.90;99.90;;;;;;5091923;28;20035;-80
2023/07/13 03:38:39;;;;;;;12.02;3.35;;;14.80;99.90;;;;;;5100231;28;20521;-80
2023/07/13 03:41:05;;;;;;;7.00;3.10;;;15.30;99.90;;;;;;5092855;28;20039;-80
2023/07/13 03:43:31;;;;;;;10.40;2.95;;;14.90;99.90;;;;;;5109722;28;20047;-80
2023/07/13 03:45:56;;;;;;;11.90;3.40;;;14.90;99.90;;;;;;5093111;28;20068;-80
2023/07/13 03:48:22;;;;;;;12.32;3.28;;;15.00;99.90;;;;;;5089011;28;20561;-81
2023/07/13 03:50:49;;;;;;;10.82;3.47;;;15.00;99.90;;;;;;5079638;28;20104;-81
2023/07/13 03:53:15;;;;;;;11.32;3.70;;;15.10;99.90;;;;;;5110145;28;20056;-82
2023/07/13 03:55:41;;;;;;;13.05;3.33;;;15.00;99.90;;;;;;5099841;28;20454;-83
2023/07/13 03:58:34;;;;;;;14.82;4.22;;;15.10;99.90;;;;;;5075517;28;20040;-82
2023/07/13 04:01:01;;;;;;;10.18;3.55;;;15.10;99.90;;;;;;5109089;28;20054;-82
2023/07/13 04:03:27;;;;;;;9.48;3.45;;;15.00;99.90;;;;;;5094423;28;20043;-82
2023/07/13 04:05:55;;;;;;;8.23;3.25;;;15.00;99.90;;;;;;5077336;28;20047;-81
2023/07/13 04:08:20;;;;;;;8.40;3.17;;;15.00;99.90;;;;;;5090991;28;20534;-81
2023/07/13 04:10:46;;;;;;;10.27;3.60;;;15.50;99.90;;;;;;5099265;28;20044;-82
2023/07/13 04:13:11;;;;;;;9.73;3.70;;;15.10;99.90;;;;;;5088084;28;20052;-81
2023/07/13 04:15:39;;;;;;;9.57;3.65;;;15.10;99.90;;;;;;5103606;28;20035;-81
2023/07/13 04:18:05;;;;;;;13.48;3.90;;;15.10;99.90;;;;;;5086965;28;20040;-82
2023/07/13 04:20:30;;;;;;;7.75;3.10;;;15.10;99.90;;;;;;5072332;28;20040;-82
2023/07/13 04:22:57;;;;;;;14.05;3.75;;;15.10;99.90;;;;;;5087852;28;20462;-82
2023/07/13 04:25:23;;;;;;;12.90;3.75;;;15.10;99.90;;;;;;5102542;28;20054;-82
2023/07/13 04:27:49;;;;;;;11.18;3.45;;;15.10;99.90;;;;;;5073583;28;20043;-82
2023/07/13 04:30:15;;;;;;;8.43;3.20;;;15.30;99.90;;;;;;5101058;28;20108;-82
2023/07/13 04:32:40;;;;;;;11.38;3.92;;;15.10;99.90;;;;;;5093281;28;20055;-82
2023/07/13 04:35:06;;;;;;;7.65;3.35;;;15.10;99.90;;;;;;5076598;28;20125;-81
2023/07/13 04:37:32;;;;;;;9.95;3.47;;;15.10;99.90;;;;;;5100174;28;20050;-82
2023/07/13 04:39:57;;;;;;;8.90;3.60;;;15.10;99.90;;;;;;5089000;28;20413;-81
2023/07/13 04:42:23;;;;;;;8.93;3.63;;;15.40;99.90;;;;;;5087660;28;20047;-82
2023/07/13 04:44:50;;;;;;;7.30;3.53;;;15.20;99.90;;;;;;5087242;28;20086;-82
2023/07/13 04:47:16;;;;;;;13.75;4.03;;;15.20;99.90;;;;;;5088517;28;20044;-82
2023/07/13 04:49:42;;;;;;;10.10;3.97;;;15.20;99.90;;;;;;5101252;28;20042;-81
2023/07/13 04:52:08;;;;;;;6.55;3.53;;;15.30;99.90;;;;;;5071426;28;20064;-82
2023/07/13 04:54:34;;;;;;;9.38;3.70;;;15.30;99.90;;;;;;5100155;28;20047;-81
2023/07/13 04:57:00;;;;;;;11.93;3.97;;;15.30;99.90;;;;;;5105997;28;20051;-81
2023/07/13 04:59:26;;;;;;;6.50;3.50;;;15.40;99.90;;;;;;5099153;28;20054;-81
2023/07/13 05:01:52;;;;;;;11.02;3.45;;;15.90;99.90;;;;;;5107093;28;20493;-83
2023/07/13 05:04:18;;;;;;;10.25;3.60;;;15.50;99.90;;;;;;5073824;28;20154;-83
2023/07/13 05:06:44;;;;;;;8.70;3.33;;;15.60;99.90;;;;;;5105067;28;20104;-82
2023/07/13 05:09:09;;;;;;;9.07;3.60;;;15.60;99.90;;;;;;5096627;28;20901;-80
2023/07/13 05:11:35;;;;;;;9.80;3.92;;;15.70;99.90;;;;;;5087290;28;20117;-81
2023/07/13 05:14:01;;;;;;;11.65;4.07;;;15.70;99.90;;;;;;5085809;28;20052;-81
2023/07/13 05:16:27;;;;;;;11.30;3.83;;;15.80;99.90;;;;;;5089743;28;20039;-82
2023/07/13 05:18:53;;;;;;;7.88;3.13;;;15.80;99.90;;;;;;5102446;28;20044;-82
2023/07/13 05:21:19;;;;;;;10.05;3.72;;;16.10;99.90;;;;;;5096476;28;20040;-80
2023/07/13 05:23:45;;;;;;;9.85;3.92;;;15.90;99.90;;;;;;5096881;28;20048;-80
2023/07/13 05:26:11;;;;;;;7.78;3.65;;;15.90;99.90;;;;;;5090014;28;20434;-82
2023/07/13 05:28:37;;;;;;;10.00;4.38;;;16.00;99.90;;;;;;5070376;28;20040;-82
2023/07/13 05:31:05;;;;;;;8.73;3.53;;;16.00;99.90;;;;;;5070213;28;20091;-81
2023/07/13 05:33:31;;;;;;;9.63;3.80;;;16.20;99.90;;;;;;5088685;28;20395;-81
2023/07/13 05:35:57;;;;;;;10.93;3.63;;;16.20;99.90;;;;;;5099712;28;20066;-80
2023/07/13 05:38:22;;;;;;;11.93;4.32;;;16.60;99.90;;;;;;5093547;28;20101;-82
2023/07/13 05:40:48;;;;;;;9.30;3.55;;;17.10;99.90;;;;;;5076815;28;20032;-82
2023/07/13 05:43:14;;;;;;;11.02;4.63;;;18.30;99.90;;;;;;5102169;28;20051;-82
2023/07/13 05:45:40;;;;;;;11.70;4.25;;;18.80;99.90;;;;;;5098998;28;20039;-80
2023/07/13 05:48:06;;;;;;;10.23;4.25;;;19.80;99.90;;;;;;5087482;28;20607;-82
2023/07/13 05:50:31;;;;;;;9.20;3.67;;;20.10;99.90;;;;;;5086289;28;20039;-83
2023/07/13 05:52:57;;;;;;;9.05;3.03;;;20.70;99.90;;;;;;5087058;28;20127;-81
2023/07/13 05:55:23;;;;;;;8.05;3.28;;;21.10;99.90;;;;;;5086623;28;20048;-82
2023/07/13 05:57:48;;;;;;;7.95;3.17;;;21.40;99.90;;;;;;5083080;28;20466;-81
2023/07/13 06:00:15;;;;;;;7.68;3.47;;;21.60;99.90;;;;;;5104480;28;20063;-81
2023/07/13 06:02:40;;;;;;;11.15;3.63;;;21.80;99.90;;;;;;5087799;28;20059;-82
2023/07/13 06:05:06;;;;;;;6.25;2.85;;;22.20;99.90;;;;;;5086875;28;20402;-81
2023/07/13 06:07:32;;;;;;;10.95;3.50;;;22.20;99.90;;;;;;5086146;28;20048;-82
2023/07/13 06:09:59;;;;;;;7.55;3.28;;;22.40;99.90;;;;;;5069523;28;20382;-81
2023/07/13 06:12:25;;;;;;;11.85;4.30;;;22.60;99.90;;;;;;5074640;28;20063;-82
2023/07/13 06:14:50;;;;;;;6.68;2.88;;;23.00;99.90;;;;;;5105697;28;20056;-81
2023/07/13 06:17:16;;;;;;;8.88;2.92;;;23.10;99.90;;;;;;5086781;28;20083;-83
2023/07/13 06:19:41;;;;;;;7.45;2.63;;;23.00;99.90;;;;;;5106530;28;20071;-81
2023/07/13 06:22:07;;;;;;;7.75;2.65;;;23.50;99.90;;;;;;5099638;28;20040;-81
2023/07/13 06:24:32;;;;;;;7.75;2.95;;;23.80;99.90;;;;;;5086624;28;20151;-81
2023/07/13 06:26:58;;;;;;;6.80;2.85;;;23.60;99.90;;;;;;5073644;28;20040;-80
2023/07/13 06:29:24;;;;;;;7.97;2.88;;;23.80;99.90;;;;;;5091392;28;20158;-81
2023/07/13 06:31:49;;;;;;;7.32;2.72;;;24.10;99.90;;;;;;5109248;28;20059;-82
2023/07/13 06:34:15;;;;;;;7.70;2.60;;;23.60;99.90;;;;;;5102822;28;20545;-82
2023/07/13 06:36:41;;;;;;;6.25;2.58;;;24.20;99.90;;;;;;5090996;28;20036;-83
2023/07/13 06:39:07;;;;;;;9.13;3.00;;;23.60;99.90;;;;;;5090362;28;20044;-81
2023/07/13 06:41:33;;;;;;;7.50;3.08;;;23.80;99.90;;;;;;5089556;28;20048;-82
2023/07/13 06:43:58;;;;;;;6.30;2.78;;;22.60;99.90;;;;;;5090969;28;20051;-81
2023/07/13 06:46:24;;;;;;;8.32;3.10;;;22.30;99.90;;;;;;5090254;28;20044;-80
2023/07/13 06:48:50;;;;;;;7.90;2.72;;;21.70;99.90;;;;;;5089845;28;20051;-79
2023/07/13 06:51:16;;;;;;;5.78;2.50;;;20.70;99.90;;;;;;5089231;28;20406;-84
2023/07/13 06:53:43;;;;;;;5.45;2.67;;;20.40;99.90;;;;;;5096119;28;20142;-77
2023/07/13 06:56:10;;;;;;;10.27;3.17;;;20.20;99.90;;;;;;5093104;28;20040;-81
2023/07/13 06:58:36;;;;;;;5.50;2.60;;;20.00;99.90;;;;;;5110361;28;20065;-82
2023/07/13 07:01:02;;;;;;;7.18;2.97;;;20.30;99.90;;;;;;5091665;28;20052;-82
2023/07/13 07:03:28;;;;;;;6.85;2.60;;;19.90;99.90;;;;;;5089602;28;20036;-81
2023/07/13 07:05:53;;;;;;;6.72;2.80;;;20.10;99.90;;;;;;5089965;28;20044;-82
2023/07/13 07:08:19;;;;;;;7.22;2.60;;;20.20;99.90;;;;;;5091453;28;20075;-84
2023/07/13 07:10:45;;;;;;;7.43;3.05;;;19.70;99.90;;;;;;5090865;28;20039;-82
2023/07/13 07:13:11;;;;;;;7.97;2.90;;;19.70;99.90;;;;;;5090666;28;20414;-82
2023/07/13 07:15:36;;;;;;;8.32;2.95;;;19.80;99.90;;;;;;5089667;28;20052;-82
2023/07/13 07:18:02;;;;;;;8.10;2.97;;;19.80;99.90;;;;;;5089451;28;20075;-86
2023/07/13 07:20:30;;;;;;;10.75;3.13;;;19.80;99.90;;;;;;5094033;28;20043;-82
2023/07/13 07:22:56;;;;;;;8.23;2.90;;;19.70;99.90;;;;;;5092638;28;20044;-81
2023/07/13 07:25:21;;;;;;;5.38;2.38;;;19.70;99.90;;;;;;5110820;28;20051;-86
2023/07/13 07:27:47;;;;;;;6.97;2.90;;;19.90;99.90;;;;;;5109463;28;20413;-82
2023/07/13 07:30:13;;;;;;;7.95;3.00;;;19.70;99.90;;;;;;5109196;28;20043;-82
2023/07/13 07:32:39;;;;;;;7.72;2.88;;;19.60;99.90;;;;;;5087861;28;20043;-82
2023/07/13 07:35:05;;;;;;;4.80;2.92;;;20.00;99.90;;;;;;5089779;28;20409;-81
2023/07/13 07:37:30;;;;;;;8.73;2.88;;;19.50;99.90;;;;;;5089748;28;20051;-81
2023/07/13 07:39:56;;;;;;;7.32;2.83;;;19.70;99.90;;;;;;5107285;28;20153;-81
2023/07/13 07:42:21;;;;;;;5.78;2.58;;;19.60;99.90;;;;;;5107769;28;20039;-81
2023/07/13 07:44:47;;;;;;;7.80;2.92;;;19.60;99.90;;;;;;5108914;28;20040;-82
2023/07/13 07:47:13;;;;;;;11.63;3.60;;;19.60;99.90;;;;;;5107168;28;20051;-81
2023/07/13 07:49:38;;;;;;;8.50;3.78;;;20.20;99.90;;;;;;5107711;28;20116;-82
2023/07/13 07:52:04;;;;;;;7.00;3.20;;;19.60;99.90;;;;;;5109474;28;20056;-82
2023/07/13 07:54:30;;;;;;;7.30;2.75;;;19.50;99.90;;;;;;5108072;28;20047;-81
2023/07/13 07:56:55;;;;;;;6.15;3.38;;;19.60;99.90;;;;;;5107083;28;20398;-81
2023/07/13 07:59:21;;;;;;;9.75;3.25;;;19.60;99.90;;;;;;5109517;28;20134;-85
2023/07/13 08:01:50;;;;;;;6.47;3.00;;;19.60;99.90;;;;;;5088228;28;20043;-85
2023/07/13 08:04:16;;;;;;;7.03;2.85;;;19.50;99.90;;;;;;5092264;28;20050;-83
2023/07/13 08:06:41;;;;;;;8.43;3.15;;;19.50;99.90;;;;;;5110102;28;20140;-84
2023/07/13 08:09:07;;;;;;;7.93;3.08;;;19.60;99.90;;;;;;5109124;28;20087;-84
2023/07/13 08:11:34;;;;;;;9.02;3.10;;;19.80;99.90;;;;;;5101541;28;20414;-86
2023/07/13 08:13:59;;;;;;;5.60;3.17;;;19.90;99.90;;;;;;5074117;28;20066;-86
2023/07/13 08:16:26;;;;;;;8.15;3.25;;;20.60;99.90;;;;;;5073328;28;20048;-86
2023/07/13 08:18:51;;;;;;;6.05;3.60;;;20.10;99.90;;;;;;5074057;28;20040;-83
2023/07/13 08:21:19;;;;;;;9.80;3.80;;;20.20;99.90;;;;;;5073789;28;20052;-86
2023/07/13 08:23:46;;;;;;;11.80;3.40;;;20.30;99.90;;;;;;5075365;28;20130;-84
2023/07/13 08:26:11;;;;;;;9.40;3.55;;;20.10;99.90;;;;;;5089556;28;20136;-86
2023/07/13 08:28:37;;;;;;;11.35;3.40;;;20.10;99.90;;;;;;5090716;28;20036;-86
2023/07/13 08:31:04;;;;;;;9.50;3.63;;;19.90;99.90;;;;;;5109787;28;20043;-86
2023/07/13 08:33:30;;;;;;;7.07;3.80;;;19.80;99.90;;;;;;5075505;28;20052;-87
2023/07/13 08:35:56;;;;;;;10.13;4.75;;;19.60;99.90;;;;;;5089316;28;20093;-84
2023/07/13 08:38:22;;;;;;;8.68;3.90;;;19.30;99.90;;;;;;5071429;28;20130;-86
2023/07/13 08:40:56;;;;;;;12.65;4.40;;;19.20;99.90;;;;;;5071604;28;20127;-86
2023/07/13 08:43:28;;;;;;;9.60;4.50;;;19.00;99.90;;;;;;5100905;28;20071;-85
2023/07/13 08:46:13;;;;;;;10.75;4.78;;;18.80;99.90;;;;;;5108544;28;20164;-83
2023/07/13 08:48:44;;;;;;;8.65;5.20;;;18.60;99.90;;;;;;5103271;28;20036;-84
2023/07/13 08:51:34;;;;;;;11.50;4.63;;;18.80;99.90;;;;;;5086713;28;20586;-84
2023/07/13 08:54:12;;;;;;;4.93;2.95;;;18.40;99.90;;;;;;5087777;28;20063;-83
2023/07/13 08:56:37;;;;;;;7.50;3.50;;;18.20;99.90;;;;;;5103241;28;20401;-84
2023/07/13 08:59:13;;;;;;;4.22;3.25;;;18.10;99.90;;;;;;5087242;28;20044;-84
2023/07/13 09:01:52;;;;;;;7.78;4.18;;;18.00;99.90;;;;;;5086983;28;20044;-84
2023/07/13 09:04:25;;;;;;;6.45;4.10;;;18.00;99.90;;;;;;5086843;28;20055;-83
2023/07/13 09:07:16;;;;;;;8.02;4.13;;;18.00;99.90;;;;;;5088706;28;20240;-83
2023/07/13 09:09:47;;;;;;;6.20;4.20;;;17.90;99.90;;;;;;5070251;28;20055;-84
2023/07/13 09:12:43;;;;;;;6.88;4.30;;;17.70;99.90;;;;;;5087109;28;20391;-83
2023/07/13 09:15:25;;;;;;;8.48;4.18;;;17.80;99.90;;;;;;5087222;28;20526;-83
2023/07/13 09:17:52;;;;;;;7.57;3.92;;;17.70;99.90;;;;;;5086695;28;20040;-82
2023/07/13 09:20:50;;;;;;;7.82;4.15;;;17.50;99.90;;;;;;5086825;28;20032;-83
2023/07/13 09:23:20;;;;;;;7.35;4.43;;;17.50;99.90;;;;;;5099495;28;20112;-83
2023/07/13 09:25:54;;;;;;;8.48;4.57;;;17.40;99.90;;;;;;5090895;28;20387;-83
2023/07/13 09:28:30;;;;;;;4.57;2.83;;;17.30;99.90;;;;;;5107250;28;20047;-82
2023/07/13 09:31:09;;;;;;;3.53;1.70;;;17.10;99.90;;;;;;5108622;28;20040;-82
2023/07/13 09:33:35;;;;;;;2.90;1.63;;;16.90;99.90;;;;;;5093279;28;20561;-83
2023/07/13 09:36:01;;;;;;;4.65;1.80;;;16.50;99.90;;;;;;5097449;28;20050;-83
2023/07/13 09:38:29;;;;;;;1.65;1.50;;;16.40;99.90;;;;;;5091256;28;20040;-84
2023/07/13 09:41:11;;;;;;;1.95;1.80;;;16.10;99.90;;;;;;5090993;28;20075;-84
2023/07/13 09:43:36;;;;;;;3.17;2.13;;;16.00;99.90;;;;;;5096614;28;20426;-84
2023/07/13 09:46:04;;;;;;;2.75;1.92;;;16.40;99.90;;;;;;5090164;28;20044;-84
2023/07/13 09:48:39;;;;;;;3.38;2.20;;;15.90;99.90;;;;;;5085978;28;20513;-85
2023/07/13 09:51:15;;;;;;;9.95;3.08;;;16.10;99.90;;;;;;5086114;28;20060;-85
2023/07/13 09:53:43;;;;;;;2.30;2.10;;;16.30;99.90;;;;;;5086426;28;20732;-85
2023/07/13 09:56:23;;;;;;;2.88;2.10;;;16.50;99.90;;;;;;5088043;28;20747;-85
2023/07/13 09:58:49;;;;;;;2.28;2.08;;;16.70;99.90;;;;;;5074696;28;20032;-84
2023/07/13 10:01:15;;;;;;;3.35;2.03;;;17.10;99.90;;;;;;5106061;28;20044;-85
2023/07/13 10:03:53;;;;;;;5.70;2.10;;;17.00;99.90;;;;;;5107037;28;20123;-86
2023/07/13 10:06:26;;;;;;;2.08;1.90;;;17.10;99.90;;;;;;5106359;28;20083;-86
2023/07/13 10:08:52;;;;;;;2.47;1.90;;;17.40;99.90;;;;;;5107020;28;20382;-85
2023/07/13 10:11:23;;;;;;;2.28;2.00;;;17.50;99.90;;;;;;5102358;28;20031;-86
2023/07/13 10:13:57;;;;;;;2.42;2.20;;;17.70;99.90;;;;;;5101388;28;20048;-86
2023/07/13 10:16:25;;;;;;;2.40;1.83;;;17.80;99.90;;;;;;5086912;28;20044;-86
2023/07/13 10:19:10;;;;;;;2.50;2.03;;;18.30;99.90;;;;;;5089024;28;20123;-85
2023/07/13 10:21:41;;;;;;;4.30;2.40;;;18.30;99.90;;;;;;5092374;28;20052;-85
2023/07/13 10:24:12;;;;;;;2.72;2.30;;;18.40;99.90;;;;;;5095113;28;20083;-84
2023/07/13 10:26:43;;;;;;;3.05;2.42;;;18.60;99.90;;;;;;5090456;28;20047;-84
2023/07/13 10:29:13;;;;;;;5.63;3.10;;;18.70;99.90;;;;;;5095181;28;20036;-86
2023/07/13 10:31:41;;;;;;;4.05;3.25;;;18.90;99.90;;;;;;5097719;28;20032;-87
2023/07/13 10:34:11;;;;;;;4.53;3.38;;;19.10;99.90;;;;;;5101932;28;20075;-86
2023/07/13 10:36:48;;;;;;;4.60;3.58;;;19.50;99.90;;;;;;5080619;28;20040;-86
2023/07/13 10:39:27;;;;;;;12.07;4.07;;;19.30;99.90;;;;;;5071585;28;20040;-88
2023/07/13 10:42:04;;;;;;;4.80;3.28;;;19.50;99.90;;;;;;5069786;28;20071;-86
2023/07/13 10:44:32;;;;;;;5.22;3.50;;;19.80;99.90;;;;;;5088999;28;20149;-87
2023/07/13 10:47:06;;;;;;;4.38;3.35;;;19.90;99.90;;;;;;5082415;28;20044;-85
2023/07/13 10:49:33;;;;;;;5.15;3.60;;;20.10;99.90;;;;;;5094064;28;20123;-87
2023/07/13 10:51:59;;;;;;;4.65;3.33;;;20.20;99.90;;;;;;5086274;28;20052;-87
2023/07/13 10:54:31;;;;;;;5.22;2.83;;;20.40;99.90;;;;;;5085453;28;20146;-85
2023/07/13 10:57:16;;;;;;;6.78;3.03;;;20.80;99.90;;;;;;5070933;28;20040;-86
2023/07/13 10:59:46;;;;;;;10.65;4.15;;;20.60;99.90;;;;;;5093361;28;20070;-84
2023/07/13 11:02:22;;;;;;;7.28;3.70;;;20.80;99.90;;;;;;5069053;28;20498;-85
2023/07/13 11:04:52;;;;;;;6.45;3.10;;;21.40;99.90;;;;;;5096290;28;20067;-86
2023/07/13 11:07:29;;;;;;;59.03;10.88;;;21.40;99.90;;;;;;5106373;28;20066;-85
2023/07/13 11:09:57;;;;;;;17.67;4.65;;;21.60;99.90;;;;;;5087901;28;20067;-85
2023/07/13 11:12:23;;;;;;;17.75;4.75;;;21.80;99.90;;;;;;5075702;28;20635;-86
2023/07/13 11:14:55;;;;;;;6.45;3.50;;;21.80;99.90;;;;;;5073507;28;20119;-84
2023/07/13 11:17:32;;;;;;;7.15;3.45;;;21.40;99.90;;;;;;5073393;28;20548;-84
2023/07/13 11:20:13;;;;;;;6.53;3.92;;;21.00;99.90;;;;;;5073306;28;20332;-83
2023/07/13 11:22:49;;;;;;;5.65;3.10;;;20.70;99.90;;;;;;5089400;28;20101;-83
2023/07/13 11:25:32;;;;;;;6.50;3.10;;;20.30;99.90;;;;;;5089255;28;20091;-83
2023/07/13 11:28:11;;;;;;;4.85;3.20;;;19.90;99.90;;;;;;5089707;28;20050;-83
2023/07/13 11:30:39;;;;;;;4.70;3.10;;;19.50;99.90;;;;;;5099517;28;20410;-84
2023/07/13 11:33:17;;;;;;;4.80;3.60;;;19.20;99.90;;;;;;5092618;28;20112;-85
2023/07/13 11:35:59;;;;;;;3.88;3.15;;;19.10;99.90;;;;;;5109555;28;20042;-84
2023/07/13 11:38:44;;;;;;;4.80;3.10;;;19.00;99.90;;;;;;5109793;28;20056;-85
2023/07/13 11:41:23;;;;;;;4.97;3.10;;;18.80;99.90;;;;;;5093343;28;20139;-84
2023/07/13 11:43:50;;;;;;;3.22;2.45;;;18.90;99.90;;;;;;5072246;28;20044;-85
2023/07/13 11:46:23;;;;;;;4.85;3.08;;;18.90;99.90;;;;;;5090876;28;20040;-85
2023/07/13 11:48:50;;;;;;;3.67;3.20;;;19.10;99.90;;;;;;5091106;28;20123;-86
2023/07/13 11:51:31;;;;;;;3.97;2.90;;;19.40;99.90;;;;;;5089916;28;20079;-85
2023/07/13 11:54:02;;;;;;;6.38;3.10;;;19.50;99.90;;;;;;5088947;28;20101;-84
2023/07/13 11:56:28;;;;;;;5.72;2.97;;;19.60;99.90;;;;;;5090614;28;20047;-84
2023/07/13 11:58:56;;;;;;;3.97;2.88;;;19.70;99.90;;;;;;5081720;28;20040;-85
2023/07/13 12:01:32;;;;;;;4.20;3.35;;;19.70;99.90;;;;;;5072407;28;20111;-84
2023/07/13 12:04:00;;;;;;;4.13;3.67;;;19.70;99.90;;;;;;5071357;28;20098;-86
2023/07/13 12:06:31;;;;;;;5.07;3.95;;;19.60;99.90;;;;;;5072270;28;20452;-83
2023/07/13 12:09:03;;;;;;;4.18;3.50;;;19.60;99.90;;;;;;5088352;28;20044;-83
2023/07/13 12:11:30;;;;;;;4.57;3.47;;;19.60;99.90;;;;;;5088567;28;20051;-83
2023/07/13 12:13:56;;;;;;;4.20;3.30;;;19.80;99.90;;;;;;5098556;28;20305;-84
2023/07/13 12:16:30;;;;;;;5.75;2.97;;;20.00;99.90;;;;;;5108405;28;20100;-85
2023/07/13 12:18:57;;;;;;;4.05;2.95;;;20.20;99.90;;;;;;5092236;28;20545;-85
2023/07/13 12:21:33;;;;;;;5.38;3.20;;;20.40;99.90;;;;;;5108086;28;20185;-84
2023/07/13 12:24:02;;;;;;;4.32;3.13;;;20.60;99.90;;;;;;5110266;28;20039;-84
2023/07/13 12:26:29;;;;;;;4.00;2.67;;;20.90;99.90;;;;;;5092392;28;20198;-85
2023/07/13 12:28:56;;;;;;;6.93;2.92;;;20.60;99.90;;;;;;5081308;28;20759;-85
2023/07/13 12:31:40;;;;;;;5.75;2.85;;;20.80;99.90;;;;;;5072263;28;20104;-85
2023/07/13 12:34:14;;;;;;;4.10;2.47;;;20.60;99.90;;;;;;5104358;28;20449;-84
2023/07/13 12:37:00;;;;;;;6.38;2.78;;;20.70;99.90;;;;;;5090487;28;20500;-85
2023/07/13 12:39:36;;;;;;;5.60;2.40;;;20.80;99.90;;;;;;5107616;28;20072;-83
2023/07/13 12:42:27;;;;;;;4.38;2.30;;;21.00;99.90;;;;;;5108877;28;20476;-83
2023/07/13 12:45:13;;;;;;;3.67;1.45;;;21.20;99.90;;;;;;5089680;28;20032;-86
2023/07/13 12:47:42;;;;;;;3.10;1.17;;;21.20;99.90;;;;;;5069997;28;20135;-85
2023/07/13 12:50:18;;;;;;;2.58;1.13;;;21.40;99.90;;;;;;5069155;28;20054;-87
2023/07/13 12:52:44;;;;;;;2.72;1.48;;;21.40;99.90;;;;;;5087550;28;20051;-86
2023/07/13 12:55:32;;;;;;;2.88;1.40;;;21.50;99.90;;;;;;5096073;28;20044;-86